createdAt,value
2019-03-02T00:00:34.954Z,13.55
2019-03-02T00:03:01.712Z,12.55
2019-03-02T00:05:30.512Z,13.93
2019-03-02T00:07:59.108Z,14.70
2019-03-02T00:10:29.114Z,15.63
2019-03-02T00:13:00.164Z,17.92
2019-03-02T00:15:30.639Z,17.90
2019-03-02T00:18:00.136Z,16.73
2019-03-02T00:20:28.898Z,17.70
2019-03-02T00:22:57.449Z,17.35
2019-03-02T00:25:25.916Z,17.15
2019-03-02T00:27:58.220Z,17.48
2019-03-02T00:30:25.244Z,12.80
2019-03-02T00:32:53.978Z,16.52
2019-03-02T00:35:22.737Z,16.87
2019-03-02T00:37:53.167Z,16.48
2019-03-02T00:40:21.676Z,17.60
2019-03-02T00:42:52.889Z,16.25
2019-03-02T00:45:23.597Z,17.62
2019-03-02T00:47:52.285Z,18.20
2019-03-02T00:50:20.768Z,19.15
2019-03-02T00:52:49.556Z,21.37
2019-03-02T00:55:18.411Z,23.38
2019-03-02T00:57:47.116Z,24.90
2019-03-02T01:00:17.552Z,23.60
2019-03-02T01:02:46.033Z,23.60
2019-03-02T01:05:15.124Z,22.22
2019-03-02T01:07:43.932Z,20.92
2019-03-02T01:10:19.092Z,21.97
2019-03-02T01:12:47.717Z,21.85
2019-03-02T01:15:16.655Z,21.33
2019-03-02T01:17:45.520Z,23.02
2019-03-02T01:20:15.756Z,22.85
2019-03-02T01:22:44.636Z,22.15
2019-03-02T01:25:16.417Z,22.32
2019-03-02T01:27:45.212Z,23.45
2019-03-02T01:30:20.726Z,23.15
2019-03-02T01:32:52.792Z,22.60
2019-03-02T01:35:21.770Z,23.00
2019-03-02T01:37:50.455Z,20.77
2019-03-02T01:40:19.235Z,24.50
2019-03-02T01:42:47.691Z,23.83
2019-03-02T01:45:18.999Z,23.27
2019-03-02T01:47:51.036Z,23.95
2019-03-02T01:50:18.243Z,23.85
2019-03-02T01:52:47.093Z,23.25
2019-03-02T01:55:17.262Z,23.18
2019-03-02T01:57:48.845Z,24.02
2019-03-02T02:00:25.803Z,23.95
2019-03-02T02:02:54.519Z,25.35
2019-03-02T02:05:24.265Z,23.38
2019-03-02T02:07:54.368Z,23.20
2019-03-02T02:10:23.621Z,21.82
2019-03-02T02:12:52.453Z,24.40
2019-03-02T02:15:25.900Z,25.08
2019-03-02T02:17:58.877Z,23.62
2019-03-02T02:20:27.363Z,23.98
2019-03-02T02:22:56.196Z,24.30
2019-03-02T02:25:24.647Z,22.48
2019-03-02T02:27:54.789Z,24.90
2019-03-02T02:30:26.850Z,24.37
2019-03-02T02:33:03.807Z,24.65
2019-03-02T02:35:29.950Z,24.10
2019-03-02T02:37:59.969Z,25.80
2019-03-02T02:40:29.576Z,24.23
2019-03-02T02:42:58.845Z,24.63
2019-03-02T02:45:27.323Z,25.52
2019-03-02T02:47:56.155Z,24.12
2019-03-02T02:50:29.326Z,25.92
2019-03-02T02:52:55.157Z,23.98
2019-03-02T02:55:24.031Z,25.08
2019-03-02T02:57:52.793Z,26.62
2019-03-02T03:00:26.317Z,25.95
2019-03-02T03:02:55.933Z,24.90
2019-03-02T03:05:24.723Z,25.25
2019-03-02T03:07:55.808Z,24.77
2019-03-02T03:10:33.466Z,24.55
2019-03-02T03:13:04.127Z,24.95
2019-03-02T03:15:36.999Z,24.20
2019-03-02T03:18:07.300Z,23.25
2019-03-02T03:20:37.806Z,24.20
2019-03-02T03:23:06.474Z,24.32
2019-03-02T03:25:35.102Z,26.50
2019-03-02T03:28:03.711Z,26.10
2019-03-02T03:30:36.450Z,25.02
2019-03-02T03:33:03.490Z,23.75
2019-03-02T03:35:32.291Z,24.12
2019-03-02T03:38:00.750Z,27.15
2019-03-02T03:40:29.628Z,23.80
2019-03-02T03:43:03.149Z,25.08
2019-03-02T03:45:30.570Z,24.30
2019-03-02T03:47:59.122Z,24.63
2019-03-02T03:50:27.990Z,25.27
2019-03-02T03:52:56.860Z,25.82
2019-03-02T03:55:27.452Z,24.47
2019-03-02T03:58:00.447Z,25.88
2019-03-02T04:00:26.486Z,25.82
2019-03-02T04:02:55.163Z,26.95
2019-03-02T04:05:23.986Z,27.55
2019-03-02T04:07:52.477Z,26.50
2019-03-02T04:10:25.865Z,27.82
2019-03-02T04:12:51.542Z,27.27
2019-03-02T04:15:21.813Z,26.20
2019-03-02T04:17:50.294Z,24.40
2019-03-02T04:20:30.846Z,27.15
2019-03-02T04:23:02.881Z,27.10
2019-03-02T04:25:31.769Z,27.67
2019-03-02T04:28:00.585Z,29.45
2019-03-02T04:30:31.259Z,26.73
2019-03-02T04:33:01.840Z,28.83
2019-03-02T04:35:33.783Z,30.65
2019-03-02T04:38:05.032Z,28.42
2019-03-02T04:40:33.546Z,27.87
2019-03-02T04:43:02.093Z,29.15
2019-03-02T04:45:30.599Z,30.37
2019-03-02T04:48:00.010Z,30.23
2019-03-02T04:50:29.667Z,30.02
2019-03-02T04:52:58.436Z,30.45
2019-03-02T04:55:26.960Z,32.35
2019-03-02T04:57:58.539Z,32.70
2019-03-02T05:00:28.678Z,31.25
2019-03-02T05:02:57.795Z,32.17
2019-03-02T05:05:26.576Z,32.53
2019-03-02T05:07:55.016Z,30.50
2019-03-02T05:10:28.725Z,32.23
2019-03-02T05:12:55.820Z,34.45
2019-03-02T05:15:26.008Z,33.80
2019-03-02T05:17:54.456Z,32.95
2019-03-02T05:20:23.306Z,34.67
2019-03-02T05:22:54.691Z,34.88
2019-03-02T05:25:22.542Z,35.73
2019-03-02T05:27:51.812Z,36.93
2019-03-02T05:30:20.598Z,35.52
2019-03-02T05:32:51.404Z,36.33
2019-03-02T05:35:20.161Z,37.10
2019-03-02T05:37:48.862Z,36.15
2019-03-02T05:40:17.578Z,38.55
2019-03-02T05:42:51.560Z,40.92
2019-03-02T05:45:20.360Z,37.88
2019-03-02T05:47:49.262Z,38.33
2019-03-02T05:50:17.993Z,38.83
2019-03-02T05:52:46.612Z,37.75
2019-03-02T05:55:18.170Z,38.92
2019-03-02T05:57:45.648Z,38.08
2019-03-02T06:00:33.854Z,39.35
2019-03-02T06:03:04.617Z,38.05
2019-03-02T06:05:33.434Z,42.98
2019-03-02T06:08:02.308Z,40.03
2019-03-02T06:10:31.101Z,42.38
2019-03-02T06:13:01.092Z,41.60
2019-03-02T06:15:31.192Z,42.73
2019-03-02T06:17:59.650Z,40.75
2019-03-02T06:20:32.534Z,44.60
2019-03-02T06:23:00.499Z,43.25
2019-03-02T06:25:28.964Z,43.02
2019-03-02T06:27:57.752Z,45.45
2019-03-02T06:30:26.696Z,43.13
2019-03-02T06:32:57.597Z,42.43
2019-03-02T06:35:29.005Z,45.08
2019-03-02T06:37:58.474Z,42.90
2019-03-02T06:40:27.491Z,43.98
2019-03-02T06:42:58.186Z,42.62
2019-03-02T06:45:26.845Z,44.30
2019-03-02T06:47:55.315Z,44.55
2019-03-02T06:50:24.084Z,43.05
2019-03-02T06:52:54.392Z,43.42
2019-03-02T06:55:24.399Z,46.20
2019-03-02T06:57:53.639Z,45.15
2019-03-02T07:00:23.799Z,44.25
2019-03-02T07:02:52.255Z,42.38
2019-03-02T07:05:20.725Z,43.13
2019-03-02T07:07:49.219Z,42.83
2019-03-02T07:10:21.911Z,42.33
2019-03-02T07:12:51.860Z,43.60
2019-03-02T07:15:20.313Z,42.73
2019-03-02T07:17:53.587Z,44.27
2019-03-02T07:20:27.108Z,42.23
2019-03-02T07:22:55.010Z,43.28
2019-03-02T07:25:23.523Z,44.80
2019-03-02T07:27:52.369Z,43.08
2019-03-02T07:30:21.177Z,38.02
2019-03-02T07:32:49.695Z,42.83
2019-03-02T07:35:19.316Z,42.23
2019-03-02T07:37:49.903Z,42.45
2019-03-02T07:40:18.785Z,40.03
2019-03-02T07:42:48.805Z,43.90
2019-03-02T07:45:19.511Z,42.98
2019-03-02T07:47:48.398Z,50.05
2019-03-02T07:50:17.291Z,42.43
2019-03-02T07:52:49.795Z,41.28
2019-03-02T07:55:19.122Z,39.58
2019-03-02T07:57:47.961Z,41.28
2019-03-02T08:00:18.951Z,39.42
2019-03-02T08:02:47.640Z,40.52
2019-03-02T08:05:16.162Z,39.33
2019-03-02T08:07:44.947Z,39.18
2019-03-02T08:10:15.166Z,38.25
2019-03-02T08:12:43.692Z,38.42
2019-03-02T08:15:24.394Z,37.35
2019-03-02T08:17:51.657Z,37.30
2019-03-02T08:20:24.836Z,37.83
2019-03-02T08:22:53.030Z,36.75
2019-03-02T08:25:21.757Z,38.88
2019-03-02T08:27:51.402Z,36.77
2019-03-02T08:30:21.833Z,34.65
2019-03-02T08:32:50.288Z,37.23
2019-03-02T08:35:19.030Z,35.48
2019-03-02T08:37:47.760Z,35.70
2019-03-02T08:40:19.200Z,34.55
2019-03-02T08:42:47.408Z,32.25
2019-03-02T08:45:17.726Z,35.60
2019-03-02T08:47:47.637Z,34.95
2019-03-02T08:50:20.215Z,35.58
2019-03-02T08:52:48.749Z,35.43
2019-03-02T08:55:18.882Z,32.55
2019-03-02T08:57:47.819Z,33.28
2019-03-02T09:00:22.482Z,32.93
2019-03-02T09:02:51.330Z,31.95
2019-03-02T09:05:26.020Z,31.45
2019-03-02T09:07:51.038Z,31.85
2019-03-02T09:10:21.545Z,32.08
2019-03-02T09:12:50.047Z,32.78
2019-03-02T09:15:22.187Z,30.45
2019-03-02T09:17:54.126Z,28.95
2019-03-02T09:20:22.679Z,30.00
2019-03-02T09:22:51.160Z,27.05
2019-03-02T09:25:23.796Z,28.25
2019-03-02T09:27:51.126Z,29.90
2019-03-02T09:30:20.832Z,27.75
2019-03-02T09:32:52.346Z,27.75
2019-03-02T09:35:21.543Z,34.95
2019-03-02T09:37:50.101Z,26.55
2019-03-02T09:40:25.156Z,26.20
2019-03-02T09:42:54.192Z,26.93
2019-03-02T09:45:22.968Z,25.27
2019-03-02T09:47:52.030Z,27.95
2019-03-02T09:50:22.295Z,26.80
2019-03-02T09:52:51.266Z,24.72
2019-03-02T09:55:20.517Z,26.73
2019-03-02T09:57:49.654Z,25.05
2019-03-02T10:00:26.178Z,25.48
2019-03-02T10:02:54.717Z,23.65
2019-03-02T10:05:23.509Z,23.75
2019-03-02T10:07:52.035Z,22.62
2019-03-02T10:10:25.036Z,26.60
2019-03-02T10:12:53.508Z,23.32
2019-03-02T10:15:28.396Z,25.30
2019-03-02T10:17:56.947Z,23.35
2019-03-02T10:20:25.710Z,26.80
2019-03-02T10:22:54.551Z,23.90
2019-03-02T10:25:26.467Z,20.32
2019-03-02T10:27:53.933Z,20.55
2019-03-02T10:30:26.010Z,21.40
2019-03-02T10:32:56.985Z,20.55
2019-03-02T10:35:25.843Z,20.55
2019-03-02T10:37:54.328Z,22.02
2019-03-02T10:40:23.279Z,21.25
2019-03-02T10:42:52.407Z,22.10
2019-03-02T10:45:22.003Z,20.15
2019-03-02T10:47:50.998Z,17.15
2019-03-02T10:50:27.617Z,18.07
2019-03-02T10:52:57.576Z,17.82
2019-03-02T10:55:26.170Z,22.87
2019-03-02T10:57:54.648Z,17.55
2019-03-02T11:00:29.644Z,19.10
2019-03-02T11:03:03.674Z,16.15
2019-03-02T11:05:43.117Z,16.23
2019-03-02T11:08:17.463Z,16.15
2019-03-02T11:10:56.884Z,14.87
2019-03-02T11:13:45.951Z,17.30
2019-03-02T11:16:25.773Z,15.83
2019-03-02T11:18:56.629Z,16.12
2019-03-02T11:21:43.337Z,15.53
2019-03-02T11:24:23.300Z,15.53
2019-03-02T11:27:09.683Z,13.90
2019-03-02T11:29:57.998Z,14.33
2019-03-02T11:32:31.670Z,15.53
2019-03-02T11:35:06.819Z,15.93
2019-03-02T11:37:36.571Z,14.65
2019-03-02T11:40:18.931Z,13.25
2019-03-02T11:43:05.197Z,16.65
2019-03-02T11:45:48.804Z,15.95
2019-03-02T11:48:19.114Z,14.93
2019-03-02T11:51:01.281Z,15.93
2019-03-02T11:53:34.870Z,15.10
2019-03-02T11:56:24.194Z,15.45
2019-03-02T11:59:11.888Z,15.35
2019-03-02T12:01:49.839Z,15.15
2019-03-02T12:04:27.894Z,13.55
2019-03-02T12:06:57.974Z,13.53
2019-03-02T12:09:30.973Z,16.48
2019-03-02T12:12:18.126Z,14.45
2019-03-02T12:14:53.887Z,13.55
2019-03-02T12:17:30.355Z,15.60
2019-03-02T12:20:17.077Z,13.93
2019-03-02T12:22:57.293Z,14.73
2019-03-02T12:25:31.006Z,15.25
2019-03-02T12:28:14.339Z,11.40
2019-03-02T12:30:50.766Z,15.28
2019-03-02T12:33:22.272Z,16.50
2019-03-02T12:35:59.817Z,17.15
2019-03-02T12:38:38.829Z,13.72
2019-03-02T12:41:12.063Z,15.83
2019-03-02T12:43:57.535Z,16.07
2019-03-02T12:46:33.749Z,15.70
2019-03-02T12:49:18.874Z,13.48
2019-03-02T12:52:01.289Z,15.48
2019-03-02T12:54:47.960Z,12.68
2019-03-02T12:57:24.321Z,12.60
2019-03-02T13:00:03.368Z,15.28
2019-03-02T13:02:36.380Z,12.68
2019-03-02T13:05:13.771Z,12.70
2019-03-02T13:08:02.225Z,13.83
2019-03-02T13:10:44.529Z,13.95
2019-03-02T13:13:20.759Z,12.80
2019-03-02T13:15:49.743Z,13.88
2019-03-02T13:18:22.808Z,15.05
2019-03-02T13:21:02.078Z,14.38
2019-03-02T13:23:42.613Z,11.12
2019-03-02T13:26:16.248Z,11.97
2019-03-02T13:28:46.470Z,9.98
2019-03-02T13:31:34.761Z,10.60
2019-03-02T13:34:08.064Z,9.50
2019-03-02T13:36:58.685Z,9.23
2019-03-02T13:39:38.071Z,10.20
2019-03-02T13:42:08.568Z,10.93
2019-03-02T13:44:42.664Z,11.00
2019-03-02T13:47:31.946Z,9.05
2019-03-02T13:50:05.145Z,9.68
2019-03-02T13:52:44.418Z,10.25
2019-03-02T13:55:23.005Z,8.95
2019-03-02T13:58:00.215Z,9.85
2019-03-02T14:00:48.063Z,9.43
2019-03-02T14:03:21.035Z,8.83
2019-03-02T14:06:08.167Z,8.70
2019-03-02T14:08:39.705Z,9.35
2019-03-02T14:11:27.115Z,9.28
2019-03-02T14:14:09.333Z,8.75
2019-03-02T14:16:55.467Z,9.88
2019-03-02T14:19:48.219Z,10.08
2019-03-02T14:22:23.725Z,9.35
2019-03-02T14:25:07.866Z,10.25
2019-03-02T14:27:57.754Z,11.15
2019-03-02T14:30:43.277Z,13.03
2019-03-02T14:33:13.396Z,25.27
2019-03-02T14:35:56.985Z,24.27
2019-03-02T14:38:34.564Z,11.85
2019-03-02T14:41:07.404Z,10.95
2019-03-02T14:43:43.450Z,11.22
2019-03-02T14:46:13.539Z,11.57
2019-03-02T14:48:59.959Z,10.20
2019-03-02T14:51:33.500Z,12.98
2019-03-02T14:54:17.233Z,12.07
2019-03-02T14:56:48.324Z,12.65
2019-03-02T14:59:19.170Z,12.78
2019-03-02T15:01:49.286Z,12.85
2019-03-02T15:04:30.714Z,12.70
2019-03-02T15:07:18.451Z,13.45
2019-03-02T15:09:52.884Z,12.28
2019-03-02T15:12:23.044Z,12.75
2019-03-02T15:14:58.977Z,12.98
2019-03-02T15:17:41.332Z,14.23
2019-03-02T15:20:12.669Z,10.45
2019-03-02T15:22:45.520Z,13.48
2019-03-02T15:25:18.932Z,13.70
2019-03-02T15:27:52.914Z,13.60
2019-03-02T15:30:26.838Z,13.32
2019-03-02T15:33:09.441Z,13.05
2019-03-02T15:35:48.819Z,14.60
2019-03-02T15:38:18.986Z,11.80
2019-03-02T15:40:58.049Z,12.88
2019-03-02T15:43:31.342Z,13.25
2019-03-02T15:46:16.326Z,13.35
2019-03-02T15:48:49.542Z,11.80
2019-03-02T15:51:26.939Z,12.93
2019-03-02T15:53:58.101Z,12.37
2019-03-02T15:56:30.987Z,12.68
2019-03-02T15:59:07.144Z,14.60
2019-03-02T16:01:56.240Z,12.40
2019-03-02T16:04:35.352Z,13.35
2019-03-02T16:07:04.363Z,12.85
2019-03-02T16:09:35.531Z,14.13
2019-03-02T16:12:22.768Z,13.85
2019-03-02T16:14:58.781Z,14.73
2019-03-02T16:17:29.217Z,13.62
2019-03-02T16:20:06.296Z,15.15
2019-03-02T16:22:37.595Z,14.55
2019-03-02T16:25:11.444Z,13.47
2019-03-02T16:27:44.281Z,13.60
2019-03-02T16:30:32.984Z,12.53
2019-03-02T16:33:03.340Z,13.48
2019-03-02T16:35:40.246Z,14.13
2019-03-02T16:38:08.655Z,13.00
2019-03-02T16:40:38.819Z,13.05
2019-03-02T16:43:09.212Z,15.63
2019-03-02T16:45:52.481Z,14.25
2019-03-02T16:48:38.251Z,15.15
2019-03-02T16:51:29.741Z,12.93
2019-03-02T16:54:01.145Z,12.40
2019-03-02T16:56:31.442Z,13.15
2019-03-02T16:59:07.514Z,13.70
2019-03-02T17:01:37.897Z,12.85
2019-03-02T17:04:20.387Z,13.48
2019-03-02T17:06:56.903Z,14.07
2019-03-02T17:09:39.243Z,13.95
2019-03-02T17:12:18.123Z,13.68
2019-03-02T17:15:04.936Z,13.48
2019-03-02T17:17:45.267Z,13.30
2019-03-02T17:20:34.233Z,13.53
2019-03-02T17:23:21.501Z,15.35
2019-03-02T17:25:48.441Z,12.75
2019-03-02T17:28:24.885Z,14.13
2019-03-02T17:30:58.130Z,13.48
2019-03-02T17:33:32.411Z,14.83
2019-03-02T17:36:11.795Z,17.87
2019-03-02T17:38:58.502Z,11.90
2019-03-02T17:41:34.608Z,11.35
2019-03-02T17:44:04.975Z,13.85
2019-03-02T17:46:36.070Z,10.68
2019-03-02T17:49:09.188Z,9.48
2019-03-02T17:51:49.561Z,9.65
2019-03-02T17:54:22.675Z,10.18
2019-03-02T17:56:55.773Z,9.28
2019-03-02T17:59:28.743Z,9.28
2019-03-02T18:01:58.881Z,9.10
2019-03-02T18:04:31.840Z,8.13
2019-03-02T18:07:18.561Z,7.85
2019-03-02T18:10:05.253Z,7.40
2019-03-02T18:12:47.460Z,7.30
2019-03-02T18:15:25.902Z,7.30
2019-03-02T18:17:58.476Z,7.12
2019-03-02T18:20:27.602Z,6.25
2019-03-02T18:22:57.665Z,7.03
2019-03-02T18:25:26.459Z,7.05
2019-03-02T18:27:56.126Z,6.53
2019-03-02T18:30:24.573Z,5.67
2019-03-02T18:32:54.668Z,6.55
2019-03-02T18:35:23.544Z,6.10
2019-03-02T18:37:52.022Z,5.72
2019-03-02T18:40:20.810Z,5.58
2019-03-02T18:42:49.310Z,4.65
2019-03-02T18:45:17.748Z,4.80
2019-03-02T18:47:46.549Z,4.58
2019-03-02T18:50:28.784Z,4.37
2019-03-02T18:53:04.116Z,3.65
2019-03-02T18:55:33.292Z,3.40
2019-03-02T18:58:02.221Z,3.58
2019-03-02T19:00:35.220Z,3.83
2019-03-02T19:03:05.291Z,2.95
2019-03-02T19:05:35.628Z,2.58
2019-03-02T19:08:06.765Z,2.70
2019-03-02T19:10:35.654Z,3.27
2019-03-02T19:13:05.104Z,3.50
2019-03-02T19:15:35.608Z,4.28
2019-03-02T19:18:04.173Z,2.75
2019-03-02T19:20:32.784Z,4.90
2019-03-02T19:23:01.300Z,2.80
2019-03-02T19:25:32.172Z,3.02
2019-03-02T19:28:00.685Z,5.12
2019-03-02T19:30:29.458Z,2.87
2019-03-02T19:32:57.950Z,3.30
2019-03-02T19:35:26.443Z,2.95
2019-03-02T19:37:54.958Z,3.37
2019-03-02T19:40:29.672Z,2.75
2019-03-02T19:42:59.661Z,3.10
2019-03-02T19:45:28.496Z,3.67
2019-03-02T19:47:56.994Z,2.75
2019-03-02T19:50:25.593Z,5.12
2019-03-02T19:52:54.075Z,3.15
2019-03-02T19:55:22.600Z,3.17
2019-03-02T19:57:51.052Z,2.75
2019-03-02T20:00:27.486Z,2.55
2019-03-02T20:02:56.029Z,1.95
2019-03-02T20:05:26.079Z,4.00
2019-03-02T20:07:54.628Z,4.50
2019-03-02T20:10:23.133Z,3.33
2019-03-02T20:12:51.924Z,3.35
2019-03-02T20:15:22.785Z,4.05
2019-03-02T20:17:54.215Z,3.37
2019-03-02T20:20:24.290Z,3.83
2019-03-02T20:22:52.847Z,4.50
2019-03-02T20:25:21.801Z,2.67
2019-03-02T20:27:52.114Z,15.08
2019-03-02T20:30:21.669Z,3.37
2019-03-02T20:32:50.309Z,3.65
2019-03-02T20:35:35.666Z,4.83
2019-03-02T20:38:04.445Z,6.40
2019-03-02T20:40:36.858Z,3.35
2019-03-02T20:43:05.496Z,3.65
2019-03-02T20:45:33.937Z,5.00
2019-03-02T20:48:02.487Z,3.65
2019-03-02T20:50:31.388Z,3.02
2019-03-02T20:52:59.829Z,3.00
2019-03-02T20:55:28.274Z,4.10
2019-03-02T20:57:56.856Z,3.75
2019-03-02T21:00:42.073Z,4.12
2019-03-02T21:03:10.889Z,2.77
2019-03-02T21:05:39.362Z,3.72
2019-03-02T21:08:07.873Z,6.22
2019-03-02T21:10:36.814Z,3.17
2019-03-02T21:13:05.600Z,2.47
2019-03-02T21:15:38.270Z,5.95
2019-03-02T21:18:06.930Z,7.00
2019-03-02T21:20:36.584Z,3.72
2019-03-02T21:23:09.234Z,3.50
2019-03-02T21:25:38.049Z,4.67
2019-03-02T21:28:07.669Z,5.70
2019-03-02T21:30:36.374Z,3.77
2019-03-02T21:33:06.191Z,3.87
2019-03-02T21:35:35.135Z,3.15
2019-03-02T21:38:03.927Z,4.10
2019-03-02T21:40:34.451Z,4.58
2019-03-02T21:43:03.260Z,4.78
2019-03-02T21:45:32.874Z,4.33
2019-03-02T21:48:01.779Z,9.90
2019-03-02T21:50:42.806Z,4.65
2019-03-02T21:53:11.805Z,7.15
2019-03-02T21:55:40.311Z,4.60
2019-03-02T21:58:09.001Z,3.90
2019-03-02T22:00:37.513Z,4.60
2019-03-02T22:03:06.125Z,3.62
2019-03-02T22:05:34.841Z,4.45
2019-03-02T22:08:03.623Z,4.37
2019-03-02T22:10:38.533Z,4.05
2019-03-02T22:13:07.327Z,3.62
2019-03-02T22:15:35.838Z,3.87
2019-03-02T22:18:05.529Z,4.50
2019-03-02T22:20:35.648Z,3.62
2019-03-02T22:23:04.637Z,4.03
2019-03-02T22:25:33.085Z,3.60
2019-03-02T22:28:01.813Z,4.12
2019-03-02T22:30:30.775Z,3.95
2019-03-02T22:33:00.825Z,3.98
2019-03-02T22:35:29.682Z,3.25
2019-03-02T22:37:58.269Z,3.75
2019-03-02T22:40:28.090Z,4.45
2019-03-02T22:42:56.551Z,4.78
2019-03-02T22:45:25.342Z,4.40
2019-03-02T22:47:53.871Z,4.65
2019-03-02T22:50:33.264Z,5.08
2019-03-02T22:53:01.719Z,5.47
2019-03-02T22:55:30.839Z,4.70
2019-03-02T22:58:00.644Z,5.12
2019-03-02T23:00:32.519Z,4.87
2019-03-02T23:03:00.162Z,6.42
2019-03-02T23:05:28.913Z,4.78
2019-03-02T23:07:57.354Z,4.97
2019-03-02T23:10:26.145Z,3.87
2019-03-02T23:12:54.904Z,5.03
2019-03-02T23:15:25.697Z,4.60
2019-03-02T23:17:54.643Z,5.47
2019-03-02T23:20:23.538Z,4.60
2019-03-02T23:22:52.063Z,4.55
2019-03-02T23:25:20.609Z,4.20
2019-03-02T23:27:52.929Z,3.83
2019-03-02T23:30:23.714Z,3.75
2019-03-02T23:32:52.578Z,4.28
2019-03-02T23:35:21.469Z,4.53
2019-03-02T23:37:50.268Z,3.30
2019-03-02T23:40:20.400Z,3.70
2019-03-02T23:42:48.915Z,2.65
2019-03-02T23:45:20.422Z,3.12
2019-03-02T23:47:49.034Z,3.55
2019-03-02T23:50:17.768Z,3.70
2019-03-02T23:52:46.675Z,4.60
2019-03-02T23:55:16.065Z,3.60
2019-03-02T23:57:44.585Z,2.77
